This is the latest recevied weather packets stored in our database for station/object DL9NEE-10. If no packets are shown the sender has not sent any weather packets the latest 10 day(s).
| Time | Temp. | Humidity | Pressure | Rain* | Wind** | Luminosity | Snow |
|---|---|---|---|---|---|---|---|
| 1777614595 | 9.44° C | 47% | 1029.5 hPa | - | - | - | - |
| 1777613695 | 8.89° C | 48% | 1029.4 hPa | - | - | - | - |
| 1777612795 | 8.33° C | 48% | 1029.2 hPa | - | - | - | - |
| 1777611895 | 8.33° C | 47% | 1029.2 hPa | - | - | - | - |
| 1777610994 | 7.78° C | 48% | 1029.1 hPa | - | - | - | - |
| 1777610094 | 8.33° C | 47% | 1028.9 hPa | - | - | - | - |
| 1777609194 | 8.33° C | 46% | 1028.9 hPa | - | - | - | - |
| 1777608294 | 8.33° C | 47% | 1028.9 hPa | - | - | - | - |
| 1777607394 | 8.33° C | 46% | 1028.7 hPa | - | - | - | - |
| 1777606494 | 8.33° C | 46% | 1028.7 hPa | - | - | - | - |
| 1777605594 | 8.33° C | 45% | 1028.8 hPa | - | - | - | - |
| 1777604694 | 8.89° C | 45% | 1028.9 hPa | - | - | - | - |
| 1777603793 | 8.89° C | 45% | 1028.8 hPa | - | - | - | - |
| 1777602893 | 8.89° C | 45% | 1028.8 hPa | - | - | - | - |
| 1777601993 | 8.89° C | 44% | 1029 hPa | - | - | - | - |
| 1777584889 | 13.33° C | 34% | 1028.6 hPa | - | - | - | - |
| 1777583989 | 13.33° C | 34% | 1028.5 hPa | - | - | - | - |
| 1777578588 | 15.56° C | 30% | 1028.4 hPa | - | - | - | - |
| 1777577688 | 16.11° C | 30% | 1028.3 hPa | - | - | - | - |
| 1777572287 | 18.33° C | 27% | 1027.6 hPa | - | - | - | - |
| 1777571387 | 18.89° C | 26% | 1027.5 hPa | - | - | - | - |
| 1777565985 | 23.89° C | 23% | 1027.4 hPa | - | - | - | - |
| 1777565084 | 26.67° C | 23% | 1027.4 hPa | - | - | - | - |
| 1777563283 | 30.56° C | 22% | 1027.5 hPa | - | - | - | - |
| 1777557882 | 28.89° C | 23% | 1028 hPa | - | - | - | - |
* Rain since midnight (hover to see other rain measurements)
** Current wind speed in m/s (hover to see current wind gust speed)